createdAt,value
2022-12-26T00:02:20.713Z,20.13
2022-12-26T00:07:24.569Z,22.23
2022-12-26T00:12:28.326Z,19.57
2022-12-26T00:17:33.621Z,22.87
2022-12-26T00:22:37.283Z,20.47
2022-12-26T00:27:42.311Z,19.07
2022-12-26T00:32:47.408Z,19.93
2022-12-26T00:37:50.871Z,21.33
2022-12-26T00:42:55.609Z,22.20
2022-12-26T00:48:00.481Z,20.57
2022-12-26T00:53:03.932Z,18.43
2022-12-26T00:58:07.574Z,19.03
2022-12-26T01:03:13.653Z,21.13
2022-12-26T01:08:19.750Z,18.40
2022-12-26T01:13:25.672Z,16.83
2022-12-26T01:18:30.878Z,14.60
2022-12-26T01:23:34.360Z,16.80
2022-12-26T01:28:38.335Z,13.37
2022-12-26T01:33:43.182Z,17.40
2022-12-26T01:38:47.789Z,17.93
2022-12-26T01:43:57.225Z,16.70
2022-12-26T01:49:08.048Z,15.57
2022-12-26T01:54:37.337Z,17.40
2022-12-26T01:59:39.159Z,16.53
2022-12-26T02:05:05.768Z,17.27
2022-12-26T02:10:14.191Z,16.80
2022-12-26T02:15:18.882Z,15.13
2022-12-26T02:20:27.631Z,17.03
2022-12-26T02:26:17.828Z,16.03
2022-12-26T02:31:33.562Z,18.67
2022-12-26T02:37:04.463Z,15.90
2022-12-26T02:42:18.950Z,17.53
2022-12-26T02:47:34.861Z,17.83
2022-12-26T02:53:08.586Z,15.97
2022-12-26T02:58:37.813Z,15.63
2022-12-26T03:04:02.525Z,19.13
2022-12-26T03:09:26.559Z,13.87
2022-12-26T03:14:33.653Z,16.37
2022-12-26T03:19:58.439Z,15.20
2022-12-26T03:25:23.008Z,14.97
2022-12-26T03:30:43.835Z,16.20
2022-12-26T03:35:48.735Z,14.00
2022-12-26T03:41:14.987Z,14.73
2022-12-26T03:46:42.542Z,15.93
2022-12-26T03:52:24.880Z,18.00
2022-12-26T03:57:53.346Z,16.27
2022-12-26T04:03:20.294Z,15.30
2022-12-26T04:08:47.273Z,18.80
2022-12-26T04:14:15.578Z,16.20
2022-12-26T04:19:38.055Z,16.03
2022-12-26T04:25:09.144Z,15.80
2022-12-26T04:30:30.445Z,18.07
2022-12-26T04:35:55.924Z,15.47
2022-12-26T04:41:20.518Z,13.03
2022-12-26T04:46:26.120Z,15.60
2022-12-26T04:51:29.750Z,13.70
2022-12-26T04:56:34.636Z,45.63
2022-12-26T05:01:55.462Z,34.00
2022-12-26T05:07:17.347Z,21.47
2022-12-26T05:12:22.491Z,16.43
2022-12-26T05:17:43.426Z,15.40
2022-12-26T05:23:06.314Z,14.90
2022-12-26T05:28:29.920Z,14.67
2022-12-26T05:33:50.771Z,16.67
2022-12-26T05:38:56.271Z,16.70
2022-12-26T05:44:01.221Z,16.13
2022-12-26T05:49:05.740Z,15.07
2022-12-26T05:54:09.754Z,17.30
2022-12-26T05:59:14.741Z,13.27
2022-12-26T06:04:18.489Z,12.27
2022-12-26T06:09:21.942Z,12.23
2022-12-26T06:14:26.840Z,14.57
2022-12-26T06:19:30.287Z,16.60
2022-12-26T06:24:33.820Z,15.37
2022-12-26T06:29:38.809Z,16.00
2022-12-26T06:34:42.305Z,14.13
2022-12-26T06:39:45.773Z,15.23
2022-12-26T06:44:50.622Z,13.73
2022-12-26T06:49:54.027Z,19.70
2022-12-26T06:54:58.906Z,15.43
2022-12-26T07:00:04.582Z,17.60
2022-12-26T07:05:09.132Z,14.23
2022-12-26T07:10:14.160Z,16.20
2022-12-26T07:15:19.024Z,14.07
2022-12-26T07:20:22.512Z,15.13
2022-12-26T07:25:25.961Z,14.10
2022-12-26T07:30:31.098Z,14.63
2022-12-26T07:35:34.804Z,15.70
2022-12-26T07:40:38.660Z,13.23
2022-12-26T07:45:45.974Z,13.50
2022-12-26T07:50:49.834Z,15.93
2022-12-26T07:55:53.204Z,15.40
2022-12-26T08:00:58.037Z,14.27
2022-12-26T08:06:01.759Z,13.10
2022-12-26T08:11:06.839Z,15.30
2022-12-26T08:16:14.556Z,11.90
2022-12-26T08:21:18.113Z,15.53
2022-12-26T08:26:27.571Z,13.23
2022-12-26T08:31:32.700Z,13.30
2022-12-26T08:36:36.385Z,13.13
2022-12-26T08:41:40.041Z,11.03
2022-12-26T08:46:45.314Z,13.73
2022-12-26T08:51:49.004Z,9.73
2022-12-26T08:56:52.465Z,15.67
2022-12-26T09:01:57.489Z,14.70
2022-12-26T09:07:01.038Z,13.27
2022-12-26T09:12:04.565Z,11.70
2022-12-26T09:17:09.492Z,9.37
2022-12-26T09:22:35.062Z,7.27
2022-12-26T09:27:38.837Z,8.60
2022-12-26T09:32:43.678Z,9.40
2022-12-26T09:37:47.494Z,10.77
2022-12-26T09:43:02.081Z,10.23
2022-12-26T09:48:15.369Z,11.20
2022-12-26T09:53:25.337Z,9.57
2022-12-26T09:58:31.682Z,13.50
2022-12-26T10:03:43.096Z,11.87
2022-12-26T10:09:10.329Z,9.93
2022-12-26T10:14:22.254Z,8.77
2022-12-26T10:19:41.384Z,5.97
2022-12-26T10:24:46.161Z,5.63
2022-12-26T10:29:53.456Z,5.40
2022-12-26T10:34:59.567Z,4.10
2022-12-26T10:40:22.636Z,3.90
2022-12-26T10:45:38.187Z,4.33
2022-12-26T10:50:47.963Z,4.33
2022-12-26T10:55:51.823Z,5.40
2022-12-26T11:00:55.263Z,4.80
2022-12-26T11:06:07.917Z,4.23
2022-12-26T11:11:15.543Z,4.37
2022-12-26T11:16:26.953Z,5.10
2022-12-26T11:21:33.157Z,4.13
2022-12-26T11:26:37.498Z,2.93
2022-12-26T11:31:43.335Z,2.50
2022-12-26T11:36:51.050Z,4.43
2022-12-26T11:41:55.902Z,4.20
2022-12-26T11:47:03.072Z,4.30
2022-12-26T11:52:39.690Z,2.63
2022-12-26T11:57:43.136Z,4.47
2022-12-26T12:02:47.286Z,3.77
2022-12-26T12:08:22.221Z,4.43
2022-12-26T12:13:47.034Z,5.03
2022-12-26T12:18:58.788Z,4.67
2022-12-26T12:24:30.156Z,5.60
2022-12-26T12:30:08.620Z,7.53
2022-12-26T12:35:33.448Z,7.27
2022-12-26T12:40:47.469Z,5.13
2022-12-26T12:46:01.820Z,5.97
2022-12-26T12:51:15.330Z,6.53
2022-12-26T12:56:29.433Z,5.90
2022-12-26T13:01:37.422Z,5.83
2022-12-26T13:06:45.261Z,6.10
2022-12-26T13:11:54.887Z,4.37
2022-12-26T13:17:02.599Z,4.53
2022-12-26T13:22:16.115Z,5.60
2022-12-26T13:27:25.849Z,4.83
2022-12-26T13:32:32.004Z,6.27
2022-12-26T13:37:57.609Z,8.83
2022-12-26T13:43:30.491Z,5.87
2022-12-26T13:49:27.572Z,6.37
2022-12-26T13:54:32.105Z,4.43
2022-12-26T13:59:42.181Z,4.67
2022-12-26T14:05:10.934Z,5.23
2022-12-26T14:10:19.721Z,4.37
2022-12-26T14:15:58.586Z,6.37
2022-12-26T14:21:25.316Z,5.30
2022-12-26T14:26:40.039Z,5.50
2022-12-26T14:31:53.228Z,5.13
2022-12-26T14:37:03.431Z,4.97
2022-12-26T14:42:42.269Z,5.47
2022-12-26T14:47:50.053Z,7.07
2022-12-26T14:52:53.667Z,10.80
2022-12-26T14:57:57.639Z,5.57
2022-12-26T15:03:32.545Z,8.20
2022-12-26T15:08:51.675Z,7.00
2022-12-26T15:14:37.545Z,8.97
2022-12-26T15:20:14.548Z,5.57
2022-12-26T15:25:44.968Z,5.47
2022-12-26T15:31:02.552Z,5.93
2022-12-26T15:36:08.958Z,6.63
2022-12-26T15:41:18.899Z,9.03
2022-12-26T15:46:25.856Z,5.83
2022-12-26T15:51:42.773Z,6.97
2022-12-26T15:57:05.711Z,8.87
2022-12-26T16:02:14.094Z,9.93
2022-12-26T16:07:29.892Z,7.50
2022-12-26T16:12:38.604Z,10.30
2022-12-26T16:17:43.129Z,10.23
2022-12-26T16:22:47.831Z,12.10
2022-12-26T16:27:55.351Z,14.83
2022-12-26T16:33:03.884Z,16.40
2022-12-26T16:38:13.711Z,16.83
2022-12-26T16:43:29.687Z,17.73
2022-12-26T16:48:35.281Z,16.03
2022-12-26T16:53:46.065Z,15.90
2022-12-26T16:58:58.684Z,19.17
2022-12-26T17:04:08.255Z,17.50
2022-12-26T17:09:17.143Z,17.40
2022-12-26T17:14:26.515Z,26.77
2022-12-26T17:19:31.840Z,26.43
2022-12-26T17:24:35.408Z,24.57
2022-12-26T17:29:55.720Z,21.90
2022-12-26T17:35:02.743Z,24.47
2022-12-26T17:40:20.337Z,26.10
2022-12-26T17:45:27.642Z,28.50
2022-12-26T17:50:33.610Z,30.57
2022-12-26T17:55:37.616Z,26.57
2022-12-26T18:00:46.774Z,26.23
2022-12-26T18:05:52.548Z,28.90
2022-12-26T18:10:56.396Z,30.10
2022-12-26T18:16:01.850Z,30.13
2022-12-26T18:21:07.490Z,32.00
2022-12-26T18:26:18.123Z,34.87
2022-12-26T18:31:23.364Z,35.50
2022-12-26T18:36:32.657Z,34.17
2022-12-26T18:41:36.590Z,35.10
2022-12-26T18:46:41.585Z,37.70
2022-12-26T18:51:45.542Z,36.87
2022-12-26T18:56:51.199Z,36.43
2022-12-26T19:01:56.349Z,35.90
2022-12-26T19:06:59.906Z,35.67
2022-12-26T19:12:03.801Z,34.73
2022-12-26T19:17:09.770Z,33.00
2022-12-26T19:22:13.540Z,36.60
2022-12-26T19:27:17.079Z,36.50
2022-12-26T19:32:22.302Z,35.17
2022-12-26T19:37:26.371Z,38.33
2022-12-26T19:42:29.983Z,39.40
2022-12-26T19:47:35.369Z,34.50
2022-12-26T19:52:41.156Z,37.17
2022-12-26T19:57:44.898Z,33.07
2022-12-26T20:02:49.845Z,36.60
2022-12-26T20:07:53.619Z,34.47
2022-12-26T20:12:57.110Z,32.60
2022-12-26T20:18:02.079Z,35.10
2022-12-26T20:23:05.537Z,31.97
2022-12-26T20:28:09.129Z,32.17
2022-12-26T20:33:14.263Z,29.13
2022-12-26T20:38:18.081Z,34.57
2022-12-26T20:43:21.960Z,33.07
2022-12-26T20:48:26.863Z,34.67
2022-12-26T20:53:30.748Z,32.80
2022-12-26T20:58:36.148Z,29.50
2022-12-26T21:03:41.597Z,34.20
2022-12-26T21:08:46.814Z,34.13
2022-12-26T21:13:51.130Z,31.73
2022-12-26T21:18:56.406Z,31.30
2022-12-26T21:24:02.398Z,30.37
2022-12-26T21:29:07.850Z,30.00
2022-12-26T21:34:18.896Z,31.97
2022-12-26T21:39:22.330Z,30.53
2022-12-26T21:44:25.769Z,29.13
2022-12-26T21:49:30.727Z,27.23
2022-12-26T21:54:52.083Z,27.07
2022-12-26T21:59:59.164Z,25.87
2022-12-26T22:05:04.903Z,26.57
2022-12-26T22:10:29.832Z,25.47
2022-12-26T22:15:50.662Z,24.40
2022-12-26T22:20:55.596Z,24.77
2022-12-26T22:25:59.329Z,23.93
2022-12-26T22:31:03.394Z,23.47
2022-12-26T22:36:10.083Z,21.23
2022-12-26T22:41:13.436Z,23.50
2022-12-26T22:46:16.899Z,26.10
2022-12-26T22:51:24.007Z,23.67
2022-12-26T22:56:28.156Z,21.73
2022-12-26T23:01:32.206Z,21.20
2022-12-26T23:06:39.965Z,19.83
2022-12-26T23:12:03.969Z,19.57
2022-12-26T23:17:09.596Z,18.00
2022-12-26T23:22:14.917Z,17.40
2022-12-26T23:27:35.984Z,17.87
2022-12-26T23:32:40.997Z,18.57
2022-12-26T23:37:45.781Z,17.77
2022-12-26T23:42:50.519Z,16.63
2022-12-26T23:47:53.930Z,17.03
2022-12-26T23:52:58.749Z,20.97
2022-12-26T23:58:02.216Z,18.23
